Time;durP1;ratioP1;P1;durP2;ratioP2;P2;SDS_P1;SDS_P2;PMS_P1;PMS_P2;Temp;Humidity;BMP_temperature;BMP_pressure;BME280_temperature;BME280_humidity;BME280_pressure;Samples;Min_cycle;Max_cycle;Signal;HPM_P1;HPM_P2
2023/10/29 00:00:44;;;;;;;11.25;5.63;;;10.50;99.90;;;;;;4768093;30;20056;-51
2023/10/29 00:03:10;;;;;;;9.88;4.93;;;10.60;99.90;;;;;;4768487;30;20134;-52
2023/10/29 00:05:36;;;;;;;11.55;5.78;;;10.50;99.90;;;;;;4768257;30;20063;-52
2023/10/29 00:08:02;;;;;;;9.38;4.97;;;10.60;99.90;;;;;;4768508;30;20043;-53
2023/10/29 00:10:28;;;;;;;9.38;4.75;;;10.70;99.90;;;;;;4768207;30;20050;-55
2023/10/29 00:12:54;;;;;;;8.13;4.55;;;10.70;99.90;;;;;;4768535;30;20119;-55
2023/10/29 00:15:20;;;;;;;9.52;4.22;;;10.60;99.90;;;;;;4768514;30;20549;-56
2023/10/29 00:17:46;;;;;;;7.63;4.28;;;10.50;99.90;;;;;;4768766;30;20054;-55
2023/10/29 00:20:12;;;;;;;7.75;4.38;;;10.60;99.90;;;;;;4767473;30;20322;-55
2023/10/29 00:22:37;;;;;;;8.27;4.28;;;10.60;99.90;;;;;;4768452;30;20123;-54
2023/10/29 00:25:03;;;;;;;9.43;4.35;;;10.70;99.90;;;;;;4768591;30;20051;-54
2023/10/29 00:27:29;;;;;;;8.82;4.32;;;10.70;99.90;;;;;;4768443;30;20405;-54
2023/10/29 00:29:55;;;;;;;9.75;4.05;;;10.70;99.90;;;;;;4768482;30;20079;-55
2023/10/29 00:32:20;;;;;;;7.95;4.05;;;10.60;99.90;;;;;;4768379;30;20055;-56
2023/10/29 00:34:47;;;;;;;7.68;3.63;;;10.70;99.90;;;;;;4768307;30;20047;-57
2023/10/29 00:37:14;;;;;;;7.38;3.75;;;10.60;99.90;;;;;;4768538;30;20398;-57
2023/10/29 00:39:40;;;;;;;7.60;4.05;;;10.60;99.90;;;;;;4768117;30;20435;-57
2023/10/29 00:42:06;;;;;;;8.63;3.80;;;10.60;99.90;;;;;;4768087;30;20055;-57
2023/10/29 00:44:32;;;;;;;8.70;3.92;;;10.60;99.90;;;;;;4768078;30;20393;-56
2023/10/29 00:46:58;;;;;;;7.30;4.13;;;10.60;99.90;;;;;;4768341;30;20412;-56
2023/10/29 00:49:24;;;;;;;7.82;4.03;;;10.70;99.90;;;;;;4768325;30;20090;-56
2023/10/29 00:51:50;;;;;;;6.82;3.72;;;10.70;99.90;;;;;;4767560;30;20371;-56
2023/10/29 00:54:17;;;;;;;8.50;4.35;;;10.70;99.90;;;;;;4768257;30;20404;-56
2023/10/29 00:56:42;;;;;;;7.82;4.40;;;10.60;99.90;;;;;;4768583;30;20489;-54
2023/10/29 00:59:11;;;;;;;8.27;4.47;;;10.60;99.90;;;;;;4768335;30;20082;-53
2023/10/29 01:01:37;;;;;;;7.38;4.63;;;10.90;99.90;;;;;;4768072;30;20087;-53
2023/10/29 01:04:04;;;;;;;8.20;4.80;;;10.80;99.90;;;;;;4768169;30;20489;-55
2023/10/29 01:06:31;;;;;;;9.18;5.00;;;10.70;99.90;;;;;;4768354;30;20126;-54
2023/10/29 01:08:58;;;;;;;8.02;4.55;;;10.70;99.90;;;;;;4780056;29;20039;-54
2023/10/29 01:11:23;;;;;;;6.75;4.07;;;10.90;99.90;;;;;;4789542;29;20098;-53
2023/10/29 01:13:50;;;;;;;8.98;4.22;;;10.90;99.90;;;;;;4789308;29;20063;-54
2023/10/29 01:16:15;;;;;;;8.65;4.10;;;10.80;99.90;;;;;;4789147;29;20405;-55
2023/10/29 01:18:41;;;;;;;6.75;4.07;;;10.70;99.90;;;;;;4789372;29;20106;-53
2023/10/29 01:21:08;;;;;;;7.03;4.00;;;10.90;99.90;;;;;;4789032;29;20044;-54
2023/10/29 01:23:35;;;;;;;7.35;4.10;;;10.80;99.90;;;;;;4787846;30;20089;-54
2023/10/29 01:26:01;;;;;;;7.18;4.32;;;10.80;99.90;;;;;;4787785;29;20054;-55
2023/10/29 01:28:26;;;;;;;6.50;4.00;;;10.80;99.90;;;;;;4788993;29;20046;-55
2023/10/29 01:30:52;;;;;;;6.80;4.15;;;11.00;99.90;;;;;;4788995;29;20130;-53
2023/10/29 01:33:18;;;;;;;7.55;4.18;;;11.10;99.90;;;;;;4773250;30;20047;-54
2023/10/29 01:35:44;;;;;;;9.25;4.68;;;10.90;99.90;;;;;;4787681;30;20055;-54
2023/10/29 01:38:09;;;;;;;8.93;4.13;;;11.10;99.90;;;;;;4789242;29;20063;-53
2023/10/29 01:40:35;;;;;;;7.00;4.45;;;10.90;99.90;;;;;;4789299;29;20062;-52
2023/10/29 01:43:01;;;;;;;7.15;4.68;;;11.00;99.90;;;;;;4789075;29;20058;-49
2023/10/29 01:45:27;;;;;;;7.68;4.70;;;10.90;99.90;;;;;;4788949;29;20574;-51
2023/10/29 01:47:53;;;;;;;9.23;5.95;;;10.90;99.90;;;;;;4788688;29;20047;-50
2023/10/29 01:50:18;;;;;;;9.18;5.50;;;11.30;99.90;;;;;;4788484;30;20516;-49
2023/10/29 01:52:44;;;;;;;8.50;5.78;;;11.00;99.90;;;;;;4788841;29;20075;-49
2023/10/29 01:55:10;;;;;;;9.93;5.45;;;11.00;99.90;;;;;;4788999;29;20047;-49
2023/10/29 01:57:36;;;;;;;10.88;6.20;;;11.40;99.90;;;;;;4788858;29;20492;-49
2023/10/29 02:00:08;;;;;;;10.45;5.88;;;11.20;99.90;;;;;;4788767;29;20094;-50
2023/10/29 02:02:34;;;;;;;8.98;5.80;;;11.20;99.90;;;;;;4784655;30;20126;-53
2023/10/29 02:05:01;;;;;;;8.32;5.65;;;11.40;99.90;;;;;;4770433;30;20520;-51
2023/10/29 02:07:26;;;;;;;9.68;5.65;;;11.20;99.90;;;;;;4770705;30;20083;-50
2023/10/29 02:09:52;;;;;;;10.98;6.10;;;11.30;99.90;;;;;;4770728;30;20132;-48
2023/10/29 02:12:18;;;;;;;9.13;5.70;;;11.20;99.90;;;;;;4770512;30;20059;-53
2023/10/29 02:14:43;;;;;;;9.10;6.00;;;11.20;99.90;;;;;;4770525;30;20055;-52
2023/10/29 02:17:09;;;;;;;8.23;5.80;;;11.40;99.90;;;;;;4770759;30;20051;-53
2023/10/29 02:19:35;;;;;;;9.32;5.45;;;11.30;99.90;;;;;;4770564;30;20054;-51
2023/10/29 02:22:01;;;;;;;9.38;5.78;;;11.30;99.90;;;;;;4769870;30;20524;-52
2023/10/29 02:24:26;;;;;;;8.60;5.35;;;11.40;99.90;;;;;;4770125;30;20052;-48
2023/10/29 02:26:52;;;;;;;10.02;5.43;;;11.40;99.90;;;;;;4770371;30;20130;-49
2023/10/29 02:29:18;;;;;;;7.53;5.18;;;11.70;99.90;;;;;;4770357;30;20481;-49
2023/10/29 02:31:43;;;;;;;7.75;4.57;;;11.60;99.90;;;;;;4770426;30;20493;-49
2023/10/29 02:34:09;;;;;;;8.90;4.55;;;11.80;99.90;;;;;;4770155;30;20052;-52
2023/10/29 02:36:35;;;;;;;9.63;4.63;;;11.50;99.90;;;;;;4768879;30;20556;-51
2023/10/29 02:39:00;;;;;;;9.85;4.30;;;11.80;99.90;;;;;;4770296;30;20043;-48
2023/10/29 02:41:26;;;;;;;11.95;3.95;;;11.60;99.90;;;;;;4770186;30;20131;-49
2023/10/29 02:43:53;;;;;;;6.78;3.85;;;11.60;99.90;;;;;;4768773;30;20130;-52
2023/10/29 02:46:18;;;;;;;9.20;4.13;;;11.80;99.90;;;;;;4770031;30;20109;-49
2023/10/29 02:48:45;;;;;;;7.70;3.95;;;11.60;99.90;;;;;;4770232;30;20409;-51
2023/10/29 02:51:13;;;;;;;8.20;3.85;;;11.90;99.90;;;;;;4769863;30;20158;-48
2023/10/29 02:53:39;;;;;;;8.80;3.80;;;11.70;99.90;;;;;;4769844;30;20052;-47
2023/10/29 02:56:05;;;;;;;7.93;3.80;;;11.60;99.90;;;;;;4769613;30;20058;-48
2023/10/29 02:58:31;;;;;;;7.28;3.53;;;11.80;99.90;;;;;;4769680;30;20099;-48
2023/10/29 03:01:07;;;;;;;7.80;3.35;;;11.90;99.90;;;;;;4769847;30;20134;-49
2023/10/29 03:03:33;;;;;;;8.70;3.55;;;11.90;99.90;;;;;;4769508;30;20405;-49
2023/10/29 03:06:06;;;;;;;8.18;3.55;;;11.90;99.90;;;;;;4770017;30;20097;-49
2023/10/29 03:08:32;;;;;;;7.78;2.97;;;11.90;99.90;;;;;;4769761;30;20047;-49
2023/10/29 03:10:59;;;;;;;6.93;3.20;;;11.80;99.90;;;;;;4768293;30;20051;-47
2023/10/29 03:13:25;;;;;;;8.00;3.15;;;11.80;99.90;;;;;;4769469;30;20108;-51
2023/10/29 03:15:51;;;;;;;7.22;2.92;;;11.60;99.90;;;;;;4769487;30;20047;-50
2023/10/29 03:18:16;;;;;;;8.25;3.25;;;11.90;99.90;;;;;;4769563;30;20104;-51
2023/10/29 03:20:42;;;;;;;7.97;3.00;;;11.60;99.90;;;;;;4769492;30;20044;-49
2023/10/29 03:23:08;;;;;;;7.00;3.20;;;11.80;99.90;;;;;;4769535;30;20052;-48
2023/10/29 03:25:34;;;;;;;7.20;2.97;;;11.80;99.90;;;;;;4769750;30;20123;-50
2023/10/29 03:28:00;;;;;;;7.05;3.10;;;11.70;99.90;;;;;;4769268;30;20456;-53
2023/10/29 03:30:25;;;;;;;8.35;3.28;;;11.70;99.90;;;;;;4769558;30;20493;-51
2023/10/29 03:32:51;;;;;;;7.03;3.25;;;11.80;99.90;;;;;;4769403;30;20474;-49
2023/10/29 03:35:17;;;;;;;7.55;3.10;;;11.80;99.90;;;;;;4767656;30;20489;-52
2023/10/29 03:37:43;;;;;;;7.55;2.80;;;11.80;99.90;;;;;;4769362;30;20052;-51
2023/10/29 03:40:09;;;;;;;7.00;2.80;;;11.60;99.90;;;;;;4768234;30;20131;-53
2023/10/29 03:42:34;;;;;;;7.93;2.85;;;11.60;99.90;;;;;;4769102;30;20079;-50
2023/10/29 03:45:00;;;;;;;7.05;2.40;;;11.70;99.90;;;;;;4768936;30;20050;-51
2023/10/29 03:47:26;;;;;;;6.28;2.60;;;11.60;99.90;;;;;;4769320;30;20122;-48
2023/10/29 03:49:51;;;;;;;5.68;2.20;;;11.70;99.90;;;;;;4767899;30;20051;-47
2023/10/29 03:52:20;;;;;;;6.40;2.33;;;11.60;99.90;;;;;;4768864;30;20040;-50
2023/10/29 03:54:46;;;;;;;7.40;2.33;;;11.50;99.90;;;;;;4768809;30;20058;-49
2023/10/29 03:57:11;;;;;;;6.68;2.15;;;11.60;99.90;;;;;;4767821;30;20040;-51
2023/10/29 03:59:37;;;;;;;4.47;1.77;;;11.70;99.90;;;;;;4782592;30;20063;-48
2023/10/29 04:02:03;;;;;;;6.15;2.05;;;11.80;99.90;;;;;;4768941;30;20047;-48
2023/10/29 04:04:29;;;;;;;7.60;2.40;;;11.50;99.90;;;;;;4768935;30;20054;-49
2023/10/29 04:06:55;;;;;;;5.07;1.70;;;11.50;99.90;;;;;;4768697;30;20055;-50
2023/10/29 04:09:21;;;;;;;7.50;1.83;;;11.70;99.90;;;;;;4768745;30;20181;-49
2023/10/29 04:11:47;;;;;;;6.95;1.70;;;11.70;99.90;;;;;;4768526;30;20126;-48
2023/10/29 04:14:12;;;;;;;5.93;1.90;;;11.80;99.90;;;;;;4768634;30;20043;-48
2023/10/29 04:16:38;;;;;;;5.32;1.95;;;11.80;99.90;;;;;;4768664;30;20054;-48
2023/10/29 04:19:03;;;;;;;5.25;1.58;;;11.90;99.90;;;;;;4768891;30;20085;-48
2023/10/29 04:21:29;;;;;;;5.85;1.77;;;11.90;99.90;;;;;;4767283;30;20047;-52
2023/10/29 04:23:55;;;;;;;4.90;1.77;;;11.80;99.90;;;;;;4768822;30;20142;-48
2023/10/29 04:26:20;;;;;;;5.50;1.50;;;11.90;99.90;;;;;;4767520;30;20101;-48
2023/10/29 04:28:46;;;;;;;4.35;1.50;;;12.00;99.90;;;;;;4768488;30;20044;-51
2023/10/29 04:31:12;;;;;;;5.40;1.55;;;12.10;99.90;;;;;;4768638;30;20084;-48
2023/10/29 04:33:38;;;;;;;10.05;1.40;;;12.10;99.90;;;;;;4767597;30;20143;-50
2023/10/29 04:36:04;;;;;;;6.35;1.55;;;12.20;99.90;;;;;;4768677;30;20048;-48
2023/10/29 04:38:31;;;;;;;3.53;1.48;;;12.20;99.90;;;;;;4768319;30;20050;-49
2023/10/29 04:40:57;;;;;;;4.90;1.27;;;12.20;99.90;;;;;;4768847;30;20127;-48
2023/10/29 04:43:23;;;;;;;2.92;1.00;;;12.30;99.90;;;;;;4768741;30;20132;-48
2023/10/29 04:45:48;;;;;;;2.42;0.82;;;12.30;99.90;;;;;;4771630;30;20109;-50
2023/10/29 04:48:16;;;;;;;3.97;1.23;;;12.10;99.90;;;;;;4770925;30;20126;-52
2023/10/29 04:50:41;;;;;;;2.78;0.80;;;12.10;99.90;;;;;;4772175;30;20118;-52
2023/10/29 04:53:07;;;;;;;2.33;0.77;;;12.00;99.90;;;;;;4789702;29;20118;-52
2023/10/29 04:55:33;;;;;;;3.60;0.88;;;11.80;99.90;;;;;;4789883;29;20071;-50
2023/10/29 04:57:59;;;;;;;3.70;0.70;;;11.80;99.90;;;;;;4789456;29;20404;-52
2023/10/29 05:00:24;;;;;;;2.20;0.60;;;11.70;99.90;;;;;;4789701;29;20051;-52
2023/10/29 05:02:50;;;;;;;3.83;0.65;;;11.60;99.90;;;;;;4784723;29;20685;-53
2023/10/29 05:05:16;;;;;;;4.07;0.70;;;11.60;99.90;;;;;;4771377;30;20083;-51
2023/10/29 05:07:44;;;;;;;2.75;0.68;;;11.50;99.90;;;;;;4771107;30;20131;-53
2023/10/29 05:10:11;;;;;;;2.65;0.60;;;11.40;99.90;;;;;;4771500;30;20058;-51
2023/10/29 05:12:37;;;;;;;2.85;0.70;;;11.40;99.90;;;;;;4771029;30;20115;-49
2023/10/29 05:15:03;;;;;;;3.88;0.70;;;11.40;99.90;;;;;;4771095;30;20474;-49
2023/10/29 05:17:29;;;;;;;2.65;0.70;;;11.30;99.90;;;;;;4771470;30;20058;-48
2023/10/29 05:19:55;;;;;;;3.65;0.70;;;11.30;99.90;;;;;;4771638;30;20425;-53
2023/10/29 05:22:21;;;;;;;3.08;0.70;;;11.30;99.90;;;;;;4771576;30;20062;-49
2023/10/29 05:24:47;;;;;;;3.65;0.80;;;11.30;99.90;;;;;;4770843;30;20047;-51
2023/10/29 05:27:13;;;;;;;3.17;0.75;;;11.30;99.90;;;;;;4771059;30;20048;-49
2023/10/29 05:29:38;;;;;;;3.85;0.70;;;11.40;99.90;;;;;;4770127;30;20044;-48
2023/10/29 05:32:05;;;;;;;2.03;0.70;;;11.40;99.90;;;;;;4771640;30;20511;-50
2023/10/29 05:34:31;;;;;;;3.38;1.02;;;11.40;99.90;;;;;;4771334;30;20039;-49
2023/10/29 05:36:56;;;;;;;2.92;0.90;;;11.40;99.90;;;;;;4771212;30;20058;-52
2023/10/29 05:39:22;;;;;;;2.75;0.70;;;11.40;99.90;;;;;;4769862;30;20407;-50
2023/10/29 05:41:47;;;;;;;5.07;1.40;;;11.50;99.90;;;;;;4770805;30;20044;-51
2023/10/29 05:44:14;;;;;;;4.38;0.85;;;11.50;99.90;;;;;;4770759;30;20054;-48
2023/10/29 05:46:39;;;;;;;2.30;0.70;;;11.50;99.90;;;;;;4771017;30;20540;-48
2023/10/29 05:49:05;;;;;;;2.60;0.70;;;11.40;99.90;;;;;;4769496;30;20135;-52
2023/10/29 05:51:31;;;;;;;3.47;1.88;;;11.40;99.90;;;;;;4771048;30;20464;-52
2023/10/29 05:53:56;;;;;;;5.90;0.85;;;11.40;99.90;;;;;;4769379;30;20052;-49
2023/10/29 05:56:23;;;;;;;3.10;0.90;;;11.40;99.90;;;;;;4769529;30;20069;-52
2023/10/29 05:58:48;;;;;;;3.38;1.00;;;11.40;99.90;;;;;;4770281;30;20112;-48
2023/10/29 06:01:14;;;;;;;3.03;0.95;;;11.40;99.90;;;;;;4770609;30;20056;-50
2023/10/29 06:03:40;;;;;;;3.03;0.80;;;11.40;99.90;;;;;;4770368;30;20055;-49
2023/10/29 06:06:06;;;;;;;5.72;0.70;;;11.30;99.90;;;;;;4770620;30;20129;-51
2023/10/29 06:08:31;;;;;;;3.25;1.10;;;11.40;99.90;;;;;;4770501;30;20446;-52
2023/10/29 06:10:57;;;;;;;3.72;0.85;;;11.40;99.90;;;;;;4770424;30;20539;-52
2023/10/29 06:13:23;;;;;;;2.80;0.70;;;11.40;99.90;;;;;;4770533;30;20504;-51
2023/10/29 06:15:48;;;;;;;2.42;0.88;;;11.50;99.90;;;;;;4769783;30;20130;-58
2023/10/29 06:18:16;;;;;;;4.38;1.50;;;11.50;99.90;;;;;;4770636;30;20179;-52
2023/10/29 06:20:42;;;;;;;3.67;1.10;;;11.50;99.90;;;;;;4769357;30;20056;-52
2023/10/29 06:23:08;;;;;;;5.32;0.95;;;11.40;99.90;;;;;;4770205;30;20044;-50
2023/10/29 06:25:34;;;;;;;2.63;0.70;;;11.40;99.90;;;;;;4770192;30;20131;-52
2023/10/29 06:28:00;;;;;;;3.75;0.75;;;11.40;99.90;;;;;;4769988;30;20508;-50
2023/10/29 06:30:26;;;;;;;4.93;0.75;;;11.40;99.90;;;;;;4770054;30;20127;-49
2023/10/29 06:32:52;;;;;;;2.28;0.70;;;11.30;99.90;;;;;;4770094;30;20124;-47
2023/10/29 06:35:17;;;;;;;2.05;0.55;;;11.20;99.90;;;;;;4768729;30;20056;-49
2023/10/29 06:37:43;;;;;;;3.53;0.80;;;11.20;99.90;;;;;;4770165;30;20479;-49
2023/10/29 06:40:09;;;;;;;4.28;0.82;;;11.10;99.90;;;;;;4770107;30;20409;-48
2023/10/29 06:42:36;;;;;;;3.58;0.70;;;11.10;99.90;;;;;;4769809;30;20051;-48
2023/10/29 06:45:02;;;;;;;2.33;0.68;;;11.10;99.90;;;;;;4769926;30;20044;-46
2023/10/29 06:47:27;;;;;;;3.35;0.85;;;11.20;99.90;;;;;;4768688;30;20601;-45
2023/10/29 06:49:55;;;;;;;5.63;1.20;;;11.20;99.90;;;;;;4769691;30;20226;-48
2023/10/29 06:52:21;;;;;;;2.08;0.80;;;11.30;99.90;;;;;;4768444;30;20095;-48
2023/10/29 06:54:47;;;;;;;5.68;0.95;;;11.30;99.90;;;;;;4768180;30;20047;-45
2023/10/29 06:57:13;;;;;;;2.55;0.90;;;11.30;99.90;;;;;;4768389;30;20132;-48
2023/10/29 06:59:39;;;;;;;6.43;1.00;;;11.50;99.90;;;;;;4767713;30;20113;-48
2023/10/29 07:02:06;;;;;;;3.65;0.90;;;11.50;99.90;;;;;;4767813;30;20060;-47
2023/10/29 07:04:33;;;;;;;5.75;0.95;;;11.50;99.90;;;;;;4767128;30;20052;-46
2023/10/29 07:06:58;;;;;;;2.67;0.75;;;11.60;99.90;;;;;;4767031;30;20044;-49
2023/10/29 07:09:24;;;;;;;4.80;0.90;;;11.80;99.90;;;;;;4767998;30;20054;-49
2023/10/29 07:11:51;;;;;;;3.85;0.95;;;11.80;99.90;;;;;;4765998;30;20078;-46
2023/10/29 07:14:17;;;;;;;5.45;1.00;;;11.90;99.90;;;;;;4767537;30;20051;-46
2023/10/29 07:16:46;;;;;;;4.53;0.90;;;11.90;99.90;;;;;;4766340;30;20422;-45
2023/10/29 07:19:12;;;;;;;5.03;1.10;;;11.90;99.90;;;;;;4767505;30;20097;-46
2023/10/29 07:21:39;;;;;;;6.68;1.92;;;11.80;99.90;;;;;;4766066;30;20054;-48
2023/10/29 07:24:06;;;;;;;5.18;1.00;;;11.90;99.90;;;;;;4766642;30;20051;-46
2023/10/29 07:26:33;;;;;;;3.95;0.90;;;11.90;99.90;;;;;;4750755;30;20042;-47
2023/10/29 07:29:01;;;;;;;6.38;1.08;;;11.90;99.90;;;;;;4765527;30;20175;-46
2023/10/29 07:31:27;;;;;;;4.13;1.40;;;12.00;99.90;;;;;;4766797;30;20137;-45
2023/10/29 07:33:53;;;;;;;5.65;0.93;;;12.00;99.90;;;;;;4765510;30;20382;-49
2023/10/29 07:36:20;;;;;;;5.25;1.00;;;12.00;99.90;;;;;;4766699;30;20054;-46
2023/10/29 07:38:46;;;;;;;3.42;0.90;;;12.00;99.90;;;;;;4767117;30;20055;-47
2023/10/29 07:41:18;;;;;;;3.30;0.90;;;12.00;99.90;;;;;;4766961;30;20497;-47
2023/10/29 07:43:43;;;;;;;6.47;1.00;;;12.10;99.90;;;;;;4767264;30;20047;-48
2023/10/29 07:46:09;;;;;;;3.28;1.10;;;12.20;99.90;;;;;;4769334;30;20128;-48
2023/10/29 07:48:35;;;;;;;4.35;1.10;;;12.30;99.90;;;;;;4766856;30;20097;-47
2023/10/29 07:51:00;;;;;;;2.33;0.80;;;12.30;99.90;;;;;;4766912;30;20039;-47
2023/10/29 07:53:28;;;;;;;3.75;1.00;;;12.30;99.90;;;;;;4767128;30;20047;-47
2023/10/29 07:55:53;;;;;;;5.38;1.15;;;12.30;99.90;;;;;;4766747;30;20056;-48
2023/10/29 07:58:19;;;;;;;5.55;0.90;;;12.30;99.90;;;;;;4766857;30;20062;-46
2023/10/29 08:00:45;;;;;;;7.88;1.80;;;12.40;99.90;;;;;;4729434;30;1137623;-47
2023/10/29 08:03:10;;;;;;;4.38;0.90;;;12.40;99.90;;;;;;4767232;30;20418;-48
2023/10/29 08:05:36;;;;;;;3.88;1.02;;;12.40;99.90;;;;;;4767773;30;20051;-46
2023/10/29 08:08:02;;;;;;;4.15;1.38;;;12.40;99.90;;;;;;4767407;30;20083;-47
2023/10/29 08:10:27;;;;;;;4.28;0.98;;;12.40;99.90;;;;;;4767724;30;20047;-47
2023/10/29 08:12:53;;;;;;;3.78;0.80;;;12.40;99.90;;;;;;4766587;30;20464;-48
2023/10/29 08:15:19;;;;;;;4.93;0.90;;;12.50;99.90;;;;;;4767519;30;20493;-45
2023/10/29 08:17:44;;;;;;;3.22;0.88;;;12.60;99.90;;;;;;4766246;30;20047;-47
2023/10/29 08:20:11;;;;;;;7.65;1.25;;;12.70;99.90;;;;;;4769864;30;20130;-48
2023/10/29 08:22:37;;;;;;;3.25;0.73;;;12.90;99.90;;;;;;4771298;30;20108;-48
2023/10/29 08:25:02;;;;;;;5.50;1.55;;;12.90;99.90;;;;;;4771150;30;20055;-47
2023/10/29 08:27:29;;;;;;;5.45;1.08;;;13.00;99.90;;;;;;4771299;30;20048;-45
2023/10/29 08:29:55;;;;;;;5.30;0.90;;;12.90;99.90;;;;;;4771284;30;20047;-46
2023/10/29 08:32:21;;;;;;;9.68;1.05;;;13.00;99.90;;;;;;4770801;30;20052;-45
2023/10/29 08:34:47;;;;;;;8.02;1.10;;;13.00;99.90;;;;;;4769467;30;20039;-45
2023/10/29 08:37:12;;;;;;;5.00;1.15;;;13.10;99.90;;;;;;4767777;30;20321;-45
2023/10/29 08:39:38;;;;;;;7.38;1.10;;;13.20;99.90;;;;;;4771120;30;20058;-46
2023/10/29 08:42:04;;;;;;;7.00;1.20;;;13.20;99.90;;;;;;4769631;30;20056;-45
2023/10/29 08:44:30;;;;;;;5.65;0.95;;;13.20;99.90;;;;;;4771157;30;20178;-46
2023/10/29 08:46:56;;;;;;;4.88;0.90;;;13.10;99.90;;;;;;4770269;30;20127;-47
2023/10/29 08:49:22;;;;;;;9.18;1.65;;;13.10;99.90;;;;;;4771627;30;20455;-45
2023/10/29 08:51:47;;;;;;;7.75;1.00;;;13.10;99.90;;;;;;4772056;30;20040;-46
2023/10/29 08:54:13;;;;;;;7.93;0.95;;;13.00;99.90;;;;;;4771889;30;20153;-45
2023/10/29 08:56:39;;;;;;;8.20;0.82;;;13.00;99.90;;;;;;4771880;30;20052;-45
2023/10/29 08:59:05;;;;;;;7.00;1.08;;;12.90;99.90;;;;;;4771876;30;20060;-47
2023/10/29 09:01:34;;;;;;;6.20;0.88;;;12.90;99.90;;;;;;4771828;30;20061;-47
2023/10/29 09:04:00;;;;;;;4.82;0.90;;;12.90;99.90;;;;;;4771668;30;20204;-46
2023/10/29 09:06:26;;;;;;;5.22;1.00;;;12.90;99.90;;;;;;4772094;30;20054;-45
2023/10/29 09:08:52;;;;;;;8.75;1.33;;;13.00;99.90;;;;;;4771692;30;20044;-46
2023/10/29 09:11:18;;;;;;;7.53;1.17;;;13.00;99.90;;;;;;4771657;30;20055;-48
2023/10/29 09:13:43;;;;;;;4.95;1.40;;;13.00;98.60;;;;;;4771847;30;20043;-49
2023/10/29 09:16:09;;;;;;;7.13;1.00;;;12.90;98.70;;;;;;4770296;30;20684;-45
2023/10/29 09:18:35;;;;;;;5.47;1.08;;;12.90;99.00;;;;;;4771874;30;20054;-46
2023/10/29 09:21:02;;;;;;;5.55;1.02;;;12.90;97.50;;;;;;4771465;30;20043;-46
2023/10/29 09:23:29;;;;;;;6.47;1.30;;;12.80;99.90;;;;;;4771345;30;20051;-45
2023/10/29 09:25:59;;;;;;;5.10;0.90;;;12.80;99.90;;;;;;4770715;30;20044;-46
2023/10/29 09:28:26;;;;;;;6.13;0.93;;;12.80;99.90;;;;;;4769429;30;20043;-46
2023/10/29 09:30:52;;;;;;;5.18;0.82;;;12.80;99.90;;;;;;4754793;30;20048;-46
2023/10/29 09:33:17;;;;;;;4.05;0.80;;;12.90;99.90;;;;;;4769989;30;20406;-48
2023/10/29 09:35:43;;;;;;;5.60;1.00;;;12.90;99.90;;;;;;4771415;30;20040;-46
2023/10/29 09:38:09;;;;;;;6.25;1.10;;;13.00;99.90;;;;;;4770657;30;20048;-46
2023/10/29 09:40:35;;;;;;;7.95;1.05;;;13.10;99.90;;;;;;4770503;30;20122;-46
2023/10/29 09:43:07;;;;;;;7.75;1.20;;;13.20;98.80;;;;;;4770427;30;20087;-48
2023/10/29 09:45:39;;;;;;;7.40;0.90;;;13.20;99.90;;;;;;4770742;30;20054;-49
2023/10/29 09:48:07;;;;;;;10.07;1.40;;;13.30;94.70;;;;;;4770772;30;20122;-46
2023/10/29 09:50:33;;;;;;;5.72;0.85;;;13.30;94.00;;;;;;4769452;30;20055;-45
2023/10/29 09:53:01;;;;;;;7.68;1.13;;;13.50;93.20;;;;;;4770481;30;20105;-46
2023/10/29 09:55:29;;;;;;;5.68;1.20;;;13.50;87.70;;;;;;4771029;30;20066;-46
2023/10/29 09:57:54;;;;;;;6.63;1.20;;;13.50;85.70;;;;;;4770948;30;20052;-49
2023/10/29 10:00:20;;;;;;;9.20;1.20;;;13.50;86.70;;;;;;4769508;30;20070;-46
2023/10/29 10:02:53;;;;;;;7.35;1.42;;;13.50;83.60;;;;;;4770929;30;20094;-47
2023/10/29 10:05:23;;;;;;;7.93;1.20;;;13.50;88.70;;;;;;4770991;30;20053;-47
2023/10/29 10:07:50;;;;;;;3.05;0.80;;;13.60;81.80;;;;;;4770752;30;20069;-46
2023/10/29 10:10:19;;;;;;;5.80;1.00;;;13.60;82.50;;;;;;4778565;30;20114;-47
2023/10/29 10:12:50;;;;;;;6.53;1.17;;;13.70;81.10;;;;;;4788425;29;20466;-46
2023/10/29 10:15:16;;;;;;;5.38;1.08;;;13.70;81.50;;;;;;4788601;29;20043;-45
2023/10/29 10:17:59;;;;;;;4.25;0.95;;;13.60;85.00;;;;;;4772250;30;20066;-45
2023/10/29 10:20:26;;;;;;;4.25;1.00;;;13.60;90.70;;;;;;4788319;29;20201;-45
2023/10/29 10:22:57;;;;;;;5.03;1.00;;;13.70;73.70;;;;;;4788396;29;20054;-45
2023/10/29 10:25:24;;;;;;;7.85;1.20;;;13.70;65.00;;;;;;4786893;29;20109;-46
2023/10/29 10:27:52;;;;;;;3.83;0.98;;;13.90;65.70;;;;;;4788313;29;20050;-47
2023/10/29 10:30:28;;;;;;;5.30;1.20;;;14.00;69.30;;;;;;4788641;29;20066;-47
2023/10/29 10:33:11;;;;;;;5.10;0.93;;;14.00;54.50;;;;;;4788183;29;20460;-50
2023/10/29 10:35:45;;;;;;;3.88;1.13;;;14.00;56.40;;;;;;4787978;29;20568;-48
2023/10/29 10:38:12;;;;;;;7.55;1.20;;;14.00;58.10;;;;;;4786974;30;20142;-46
2023/10/29 10:40:38;;;;;;;5.43;1.27;;;13.90;61.70;;;;;;4786598;29;20573;-48
2023/10/29 10:43:08;;;;;;;7.82;1.88;;;13.90;60.90;;;;;;4787039;29;20420;-46
2023/10/29 10:45:36;;;;;;;3.63;1.10;;;13.90;61.40;;;;;;4787751;29;20055;-49
2023/10/29 10:48:04;;;;;;;6.22;1.38;;;13.80;58.70;;;;;;4787667;29;20043;-46
2023/10/29 10:50:31;;;;;;;5.07;1.20;;;13.60;52.60;;;;;;4788191;29;20085;-46
2023/10/29 10:52:58;;;;;;;8.52;1.30;;;13.60;54.90;;;;;;4788111;29;20461;-45
2023/10/29 10:55:25;;;;;;;7.72;1.13;;;13.60;51.20;;;;;;4787840;29;20532;-44
2023/10/29 10:57:51;;;;;;;5.88;1.23;;;13.60;50.70;;;;;;4787931;29;20054;-45
2023/10/29 11:00:19;;;;;;;3.40;1.00;;;13.70;54.80;;;;;;4787570;29;20133;-45
2023/10/29 11:02:46;;;;;;;5.95;1.08;;;13.70;58.70;;;;;;4782328;30;20056;-45
2023/10/29 11:05:13;;;;;;;7.18;1.35;;;13.70;52.30;;;;;;4769639;30;20087;-45
2023/10/29 11:07:41;;;;;;;10.65;2.10;;;13.70;51.40;;;;;;4769771;30;20079;-45
2023/10/29 11:10:08;;;;;;;5.95;1.10;;;13.70;56.40;;;;;;4769948;30;20070;-45
2023/10/29 11:12:37;;;;;;;5.15;1.50;;;13.80;52.80;;;;;;4769601;30;20039;-45
2023/10/29 11:15:19;;;;;;;6.03;1.38;;;13.70;51.80;;;;;;4768267;30;20051;-46
2023/10/29 11:17:59;;;;;;;8.20;1.70;;;13.70;51.10;;;;;;4769727;30;20051;-45
2023/10/29 11:20:37;;;;;;;8.82;1.20;;;13.70;51.00;;;;;;4769788;30;20048;-46
2023/10/29 11:23:09;;;;;;;6.70;1.40;;;13.90;52.00;;;;;;4769506;30;20056;-45
2023/10/29 11:25:41;;;;;;;;;;;14.00;58.40;;;;;;4769757;30;20051;-45
2023/10/29 11:28:28;;;;;;;9.15;1.95;;;13.90;40.40;;;;;;4768338;30;19968;-46
2023/10/29 11:31:15;;;;;;;6.15;1.35;;;14.00;48.10;;;;;;4769651;30;20137;-46
2023/10/29 11:33:43;;;;;;;8.38;1.83;;;14.00;43.20;;;;;;4769289;30;20181;-46
2023/10/29 11:36:32;;;;;;;9.65;1.85;;;13.90;41.00;;;;;;4768975;30;20052;-46
2023/10/29 11:39:16;;;;;;;7.85;1.65;;;13.90;41.40;;;;;;4768469;30;20058;-45
2023/10/29 11:41:49;;;;;;;7.97;2.10;;;13.90;52.70;;;;;;4767336;30;20126;-45
2023/10/29 11:44:24;;;;;;;7.78;2.05;;;13.80;43.30;;;;;;4757403;30;20044;-47
2023/10/29 11:46:59;;;;;;;7.97;1.95;;;13.90;48.10;;;;;;4759666;30;20070;-45
2023/10/29 11:49:30;;;;;;;8.80;1.77;;;13.90;52.20;;;;;;4759287;30;20093;-46
2023/10/29 11:52:03;;;;;;;12.18;2.00;;;13.80;55.40;;;;;;4747792;30;20086;-47
2023/10/29 11:54:32;;;;;;;9.43;1.80;;;13.70;55.40;;;;;;4766952;30;20106;-49
2023/10/29 11:56:58;;;;;;;8.57;1.83;;;13.70;60.20;;;;;;4769319;30;20515;-45
2023/10/29 11:59:25;;;;;;;7.50;1.33;;;13.60;51.40;;;;;;4782488;30;20071;-46
2023/10/29 12:01:52;;;;;;;8.73;1.73;;;13.60;52.20;;;;;;4768887;30;20512;-46
2023/10/29 12:04:17;;;;;;;7.85;1.88;;;13.60;51.70;;;;;;4768865;30;20153;-48
2023/10/29 12:06:48;;;;;;;11.50;1.98;;;13.60;47.90;;;;;;4768903;30;20079;-45
2023/10/29 12:09:22;;;;;;;5.97;1.65;;;13.60;56.90;;;;;;4768382;30;20062;-50
2023/10/29 12:11:51;;;;;;;10.32;2.17;;;13.60;54.00;;;;;;4767720;30;20508;-46
2023/10/29 12:14:36;;;;;;;7.10;1.38;;;13.50;52.60;;;;;;4769226;30;20047;-47
2023/10/29 12:17:02;;;;;;;7.03;1.38;;;13.50;54.90;;;;;;4769083;30;20051;-49
2023/10/29 12:19:46;;;;;;;7.55;1.20;;;13.40;54.80;;;;;;4768721;30;20139;-44
2023/10/29 12:22:20;;;;;;;9.48;1.30;;;13.40;52.80;;;;;;4769261;30;20181;-45
2023/10/29 12:24:51;;;;;;;9.75;1.67;;;13.40;53.80;;;;;;4768838;30;20055;-45
2023/10/29 12:27:19;;;;;;;8.95;1.75;;;13.40;53.80;;;;;;4768817;30;20043;-45
2023/10/29 12:29:45;;;;;;;8.27;1.80;;;13.50;51.90;;;;;;4768561;30;20048;-47
2023/10/29 12:32:22;;;;;;;7.70;1.15;;;13.50;52.40;;;;;;4768743;30;20378;-46
2023/10/29 12:34:50;;;;;;;6.50;1.17;;;13.40;39.90;;;;;;4768592;30;20052;-45
2023/10/29 12:37:26;;;;;;;8.57;1.60;;;13.50;47.60;;;;;;4768907;30;20473;-47
2023/10/29 12:39:56;;;;;;;12.75;2.08;;;13.50;46.40;;;;;;4768775;30;20398;-45
2023/10/29 12:42:42;;;;;;;6.80;1.50;;;13.50;41.10;;;;;;4768457;30;20054;-45
2023/10/29 12:45:08;;;;;;;9.20;1.40;;;13.50;43.20;;;;;;4768256;30;20048;-45